createdAt,value
2023-03-26T00:01:36.301Z,1.00
2023-03-26T00:04:03.214Z,1.00
2023-03-26T00:06:31.305Z,0.98
2023-03-26T00:08:58.085Z,0.90
2023-03-26T00:11:26.470Z,0.93
2023-03-26T00:13:56.909Z,0.82
2023-03-26T00:16:24.533Z,0.90
2023-03-26T00:18:51.633Z,0.90
2023-03-26T00:21:21.223Z,0.73
2023-03-26T00:23:49.090Z,0.82
2023-03-26T00:26:17.490Z,0.82
2023-03-26T00:28:44.006Z,0.90
2023-03-26T00:31:14.404Z,0.85
2023-03-26T00:33:41.313Z,0.68
2023-03-26T00:36:10.461Z,0.80
2023-03-26T00:38:38.894Z,1.10
2023-03-26T00:41:07.120Z,0.90
2023-03-26T00:43:35.052Z,0.90
2023-03-26T00:46:02.202Z,0.88
2023-03-26T00:48:42.268Z,0.90
2023-03-26T00:51:11.390Z,0.90
2023-03-26T00:53:38.941Z,0.88
2023-03-26T00:56:06.513Z,0.80
2023-03-26T00:58:33.524Z,0.77
2023-03-26T01:01:13.675Z,0.80
2023-03-26T01:03:40.797Z,0.90
2023-03-26T01:06:09.107Z,0.77
2023-03-26T01:08:38.222Z,0.80
2023-03-26T01:11:13.981Z,0.70
2023-03-26T01:13:43.551Z,0.90
2023-03-26T01:16:20.203Z,0.70
2023-03-26T01:18:47.049Z,0.82
2023-03-26T01:21:14.462Z,0.80
2023-03-26T01:23:49.050Z,0.80
2023-03-26T01:28:56.147Z,0.88
2023-03-26T01:31:39.594Z,0.80
2023-03-26T01:34:18.162Z,0.90
2023-03-26T01:36:57.728Z,1.08
2023-03-26T01:39:49.041Z,0.80
2023-03-26T01:42:17.495Z,0.70
2023-03-26T01:44:46.374Z,0.70
2023-03-26T01:47:12.919Z,1.00
2023-03-26T01:49:39.366Z,1.15
2023-03-26T01:52:14.499Z,0.80
2023-03-26T01:54:41.325Z,0.80
2023-03-26T01:57:16.805Z,0.80
2023-03-26T01:59:43.146Z,0.90
2023-03-26T02:02:24.973Z,0.85
2023-03-26T02:05:21.465Z,1.00
2023-03-26T02:07:50.884Z,0.90
2023-03-26T02:10:22.009Z,0.93
2023-03-26T02:12:48.478Z,0.85
2023-03-26T02:15:15.630Z,0.90
2023-03-26T02:17:42.123Z,0.98
2023-03-26T02:20:10.293Z,0.90
2023-03-26T02:22:40.939Z,1.08
2023-03-26T02:25:09.374Z,0.80
2023-03-26T02:27:36.966Z,0.90
2023-03-26T02:30:07.999Z,0.88
2023-03-26T02:32:35.021Z,0.90
2023-03-26T02:35:01.811Z,0.80
2023-03-26T02:37:30.370Z,0.98
2023-03-26T02:39:56.859Z,0.90
2023-03-26T02:42:23.311Z,0.88
2023-03-26T02:44:49.870Z,0.90
2023-03-26T02:47:16.348Z,0.80
2023-03-26T02:49:46.298Z,0.80
2023-03-26T02:52:12.917Z,1.00
2023-03-26T02:54:39.383Z,0.90
2023-03-26T02:57:05.899Z,0.75
2023-03-26T02:59:32.405Z,0.75
2023-03-26T03:01:58.876Z,0.70
2023-03-26T03:04:25.382Z,0.80
2023-03-26T03:06:57.373Z,0.73
2023-03-26T03:09:24.939Z,0.90
2023-03-26T03:11:54.216Z,0.75
2023-03-26T03:14:21.084Z,0.70
2023-03-26T03:16:47.646Z,0.75
2023-03-26T03:19:14.224Z,0.65
2023-03-26T03:21:40.946Z,0.77
2023-03-26T03:24:07.737Z,0.80
2023-03-26T03:26:34.237Z,0.60
2023-03-26T03:29:00.984Z,0.60
2023-03-26T03:31:28.209Z,0.60
2023-03-26T03:33:54.782Z,0.50
2023-03-26T03:36:27.866Z,0.80
2023-03-26T03:38:54.475Z,0.50
2023-03-26T03:41:21.022Z,0.70
2023-03-26T03:43:47.530Z,0.60
2023-03-26T03:46:14.022Z,0.88
2023-03-26T03:48:40.626Z,0.80
2023-03-26T03:51:07.143Z,0.90
2023-03-26T03:53:37.113Z,0.75
2023-03-26T03:56:04.491Z,0.80
2023-03-26T03:58:31.108Z,0.75
2023-03-26T04:01:00.817Z,0.70
2023-03-26T04:03:33.401Z,0.52
2023-03-26T04:06:01.099Z,0.60
2023-03-26T04:08:27.655Z,0.70
2023-03-26T04:10:54.127Z,0.70
2023-03-26T04:13:20.679Z,0.60
2023-03-26T04:15:47.263Z,0.60
2023-03-26T04:18:13.819Z,0.70
2023-03-26T04:20:46.247Z,0.65
2023-03-26T04:23:18.126Z,0.70
2023-03-26T04:25:48.366Z,0.70
2023-03-26T04:28:22.294Z,0.70
2023-03-26T04:30:48.879Z,0.82
2023-03-26T04:33:15.524Z,0.68
2023-03-26T04:35:44.357Z,0.60
2023-03-26T04:38:10.857Z,0.80
2023-03-26T04:40:37.316Z,0.80
2023-03-26T04:43:03.996Z,0.60
2023-03-26T04:45:31.184Z,0.60
2023-03-26T04:47:58.285Z,0.50
2023-03-26T04:50:25.455Z,0.77
2023-03-26T04:52:52.442Z,0.70
2023-03-26T04:55:37.481Z,0.80
2023-03-26T04:58:05.422Z,0.68
2023-03-26T05:00:31.984Z,0.90
2023-03-26T05:03:01.523Z,1.00
2023-03-26T05:05:28.342Z,0.85
2023-03-26T05:07:55.914Z,0.77
2023-03-26T05:10:22.592Z,1.00
2023-03-26T05:12:49.260Z,0.70
2023-03-26T05:15:15.994Z,1.00
2023-03-26T05:17:42.634Z,0.88
2023-03-26T05:20:20.772Z,0.80
2023-03-26T05:22:50.754Z,0.77
2023-03-26T05:25:17.752Z,0.70
2023-03-26T05:27:44.549Z,0.80
2023-03-26T05:30:16.753Z,0.60
2023-03-26T05:32:43.272Z,0.90
2023-03-26T05:35:09.920Z,0.60
2023-03-26T05:37:38.758Z,0.77
2023-03-26T05:40:11.479Z,0.70
2023-03-26T05:42:38.798Z,0.88
2023-03-26T05:45:07.273Z,0.70
2023-03-26T05:47:33.934Z,0.70
2023-03-26T05:50:00.616Z,0.68
2023-03-26T05:52:27.419Z,0.63
2023-03-26T05:54:53.938Z,0.60
2023-03-26T05:57:22.282Z,0.77
2023-03-26T05:59:48.740Z,0.70
2023-03-26T06:02:15.236Z,0.70
2023-03-26T06:04:42.743Z,0.60
2023-03-26T06:07:10.014Z,0.50
2023-03-26T06:09:40.858Z,0.80
2023-03-26T06:12:08.367Z,0.70
2023-03-26T06:14:35.216Z,0.68
2023-03-26T06:17:01.912Z,0.80
2023-03-26T06:19:28.377Z,0.70
2023-03-26T06:21:54.830Z,0.80
2023-03-26T06:24:21.809Z,0.60
2023-03-26T06:26:48.313Z,1.00
2023-03-26T06:29:14.844Z,0.98
2023-03-26T06:31:41.565Z,0.80
2023-03-26T06:34:08.115Z,0.80
2023-03-26T06:36:34.614Z,0.63
2023-03-26T06:39:01.073Z,1.00
2023-03-26T06:41:34.820Z,1.00
2023-03-26T06:44:01.373Z,0.90
2023-03-26T06:46:27.948Z,1.20
2023-03-26T06:48:54.485Z,0.85
2023-03-26T06:51:20.977Z,1.10
2023-03-26T06:53:47.444Z,1.00
2023-03-26T06:56:13.908Z,1.20
2023-03-26T06:58:40.678Z,1.00
2023-03-26T07:01:07.244Z,0.95
2023-03-26T07:03:33.829Z,1.00
2023-03-26T07:06:00.442Z,0.80
2023-03-26T07:08:26.967Z,1.15
2023-03-26T07:10:53.582Z,0.90
2023-03-26T07:13:20.369Z,1.35
2023-03-26T07:15:48.869Z,1.02
2023-03-26T07:18:15.642Z,0.93
2023-03-26T07:20:43.591Z,1.20
2023-03-26T07:23:10.904Z,0.90
2023-03-26T07:25:37.655Z,0.80
2023-03-26T07:28:33.410Z,0.80
2023-03-26T07:31:03.427Z,0.80
2023-03-26T07:33:46.866Z,0.80
2023-03-26T07:36:19.439Z,0.73
2023-03-26T07:39:04.096Z,0.80
2023-03-26T07:41:48.225Z,0.80
2023-03-26T07:44:38.500Z,0.70
2023-03-26T07:47:25.489Z,0.70
2023-03-26T07:49:55.597Z,0.73
2023-03-26T07:52:22.288Z,0.95
2023-03-26T07:54:49.110Z,0.80
2023-03-26T07:57:32.062Z,1.00
2023-03-26T08:00:22.101Z,0.82
2023-03-26T08:03:03.710Z,0.60
2023-03-26T08:05:44.290Z,0.80
2023-03-26T08:08:31.767Z,0.60
2023-03-26T08:11:24.046Z,0.75
2023-03-26T08:13:57.088Z,0.80
2023-03-26T08:16:26.796Z,0.45
2023-03-26T08:19:30.799Z,0.50
2023-03-26T08:22:11.141Z,0.68
2023-03-26T08:24:43.602Z,0.40
2023-03-26T08:27:31.683Z,0.60
2023-03-26T08:30:09.324Z,0.60
2023-03-26T08:32:35.995Z,0.52
2023-03-26T08:35:03.970Z,0.70
2023-03-26T08:37:30.584Z,0.47
2023-03-26T08:39:57.447Z,0.60
2023-03-26T08:42:37.491Z,0.50
2023-03-26T08:45:42.876Z,0.47
2023-03-26T08:48:15.450Z,0.60
2023-03-26T08:51:23.135Z,0.60
2023-03-26T08:54:18.345Z,0.57
2023-03-26T08:59:54.625Z,0.50
2023-03-26T09:02:37.412Z,0.40
2023-03-26T09:05:37.994Z,0.85
2023-03-26T09:08:13.381Z,0.35
2023-03-26T09:10:52.238Z,0.52
2023-03-26T09:13:43.379Z,0.50
2023-03-26T09:16:26.673Z,0.50
2023-03-26T09:19:34.883Z,0.40
2023-03-26T09:22:05.793Z,0.40
2023-03-26T09:25:06.861Z,0.60
2023-03-26T09:27:46.149Z,0.45
2023-03-26T09:30:31.492Z,0.32
2023-03-26T09:33:16.502Z,0.47
2023-03-26T09:35:52.850Z,0.50
2023-03-26T09:38:50.718Z,0.47
2023-03-26T09:41:18.670Z,0.50
2023-03-26T09:43:48.825Z,0.30
2023-03-26T09:46:52.178Z,0.40
2023-03-26T09:49:24.692Z,0.40
2023-03-26T09:51:54.116Z,0.60
2023-03-26T09:54:39.317Z,0.43
2023-03-26T09:57:39.800Z,0.50
2023-03-26T10:00:40.411Z,0.47
2023-03-26T10:03:28.163Z,0.43
2023-03-26T10:06:20.153Z,0.50
2023-03-26T10:08:55.786Z,0.40
2023-03-26T10:11:37.767Z,0.30
2023-03-26T10:14:26.997Z,0.47
2023-03-26T10:17:18.256Z,0.52
2023-03-26T10:20:09.546Z,0.32
2023-03-26T10:22:56.701Z,0.30
2023-03-26T10:25:50.202Z,0.40
2023-03-26T10:28:38.436Z,0.30
2023-03-26T10:31:07.594Z,0.40
2023-03-26T10:33:52.591Z,0.40
2023-03-26T10:36:19.001Z,0.20
2023-03-26T10:39:09.338Z,0.40
2023-03-26T10:41:40.181Z,0.30
2023-03-26T10:44:15.740Z,0.30
2023-03-26T10:47:08.374Z,0.30
2023-03-26T10:49:49.724Z,0.30
2023-03-26T10:52:20.867Z,0.30
2023-03-26T10:54:53.197Z,0.30
2023-03-26T10:57:38.318Z,0.30
2023-03-26T11:00:26.995Z,0.40
2023-03-26T11:03:17.294Z,0.30
2023-03-26T11:06:15.270Z,0.30
2023-03-26T11:08:50.758Z,0.40
2023-03-26T11:11:20.278Z,0.30
2023-03-26T11:14:00.984Z,0.45
2023-03-26T11:17:02.794Z,0.30
2023-03-26T11:19:41.380Z,0.30
2023-03-26T11:22:17.672Z,0.30
2023-03-26T11:24:59.340Z,0.30
2023-03-26T11:27:35.955Z,0.40
2023-03-26T11:30:02.344Z,0.40
2023-03-26T11:32:40.665Z,0.40
2023-03-26T11:35:39.679Z,0.30
2023-03-26T11:38:22.067Z,0.30
2023-03-26T11:40:51.104Z,0.40
2023-03-26T11:43:21.050Z,0.38
2023-03-26T11:45:47.985Z,0.45
2023-03-26T11:48:20.364Z,0.30
2023-03-26T11:50:55.961Z,0.35
2023-03-26T11:53:24.612Z,0.82
2023-03-26T11:56:14.743Z,1.10
2023-03-26T11:58:56.314Z,1.70
2023-03-26T12:01:32.669Z,0.77
2023-03-26T12:04:13.172Z,1.30
2023-03-26T12:06:39.814Z,1.10
2023-03-26T12:09:17.225Z,0.90
2023-03-26T12:11:45.079Z,0.32
2023-03-26T12:14:17.454Z,0.50
2023-03-26T12:18:24.225Z,0.40
2023-03-26T12:21:08.466Z,0.40
2023-03-26T12:23:52.410Z,2.33
2023-03-26T12:26:34.983Z,2.70
2023-03-26T12:29:06.913Z,2.30
2023-03-26T12:31:42.375Z,1.90
2023-03-26T12:34:22.996Z,2.90
2023-03-26T12:36:54.579Z,2.53
2023-03-26T12:40:06.646Z,2.50
2023-03-26T12:44:46.038Z,1.90
2023-03-26T12:45:16.828Z,0.77
2023-03-26T12:47:57.023Z,0.40
2023-03-26T12:50:44.524Z,0.20
2023-03-26T12:53:17.935Z,0.20
2023-03-26T12:55:51.101Z,0.20
2023-03-26T12:58:25.893Z,0.17
2023-03-26T13:01:21.648Z,0.10
2023-03-26T13:04:24.170Z,0.20
2023-03-26T13:07:00.678Z,0.20
2023-03-26T13:09:46.628Z,0.25
2023-03-26T13:12:22.941Z,0.30
2023-03-26T13:14:49.412Z,0.17
2023-03-26T13:17:23.622Z,0.40
2023-03-26T13:22:56.314Z,0.30
2023-03-26T13:25:48.971Z,0.20
2023-03-26T13:28:32.301Z,0.30
2023-03-26T13:31:25.985Z,0.30
2023-03-26T13:34:27.642Z,0.30
2023-03-26T13:37:32.886Z,0.30
2023-03-26T13:40:14.504Z,0.60
2023-03-26T13:43:26.375Z,0.50
2023-03-26T13:46:05.114Z,0.50
2023-03-26T13:49:02.215Z,0.70
2023-03-26T13:52:02.176Z,0.13
2023-03-26T13:54:36.894Z,0.32
2023-03-26T13:57:25.300Z,0.45
2023-03-26T14:00:12.653Z,0.30
2023-03-26T14:02:40.561Z,0.20
2023-03-26T14:05:17.171Z,0.20
2023-03-26T14:07:47.035Z,0.30
2023-03-26T14:10:18.718Z,0.22
2023-03-26T14:12:57.251Z,0.30
2023-03-26T14:15:32.324Z,0.30
2023-03-26T14:18:07.751Z,0.30
2023-03-26T14:20:56.314Z,0.20
2023-03-26T14:23:31.034Z,0.30
2023-03-26T14:29:23.931Z,0.30
2023-03-26T14:32:14.388Z,0.30
2023-03-26T14:35:05.703Z,0.30
2023-03-26T14:38:09.590Z,0.20
2023-03-26T14:40:51.182Z,0.30
2023-03-26T14:43:30.478Z,0.20
2023-03-26T14:46:03.180Z,0.20
2023-03-26T14:48:34.366Z,0.40
2023-03-26T14:51:28.573Z,0.30
2023-03-26T14:54:22.828Z,0.30
2023-03-26T14:57:03.939Z,0.40
2023-03-26T14:59:42.321Z,0.40
2023-03-26T15:02:30.813Z,0.30
2023-03-26T15:05:21.863Z,0.38
2023-03-26T15:08:03.428Z,0.30
2023-03-26T15:10:46.961Z,0.40
2023-03-26T15:13:51.175Z,0.30
2023-03-26T15:16:49.765Z,0.40
2023-03-26T15:19:53.636Z,0.45
2023-03-26T15:22:26.191Z,0.70
2023-03-26T15:25:20.499Z,0.40
2023-03-26T15:28:25.801Z,0.38
2023-03-26T15:31:18.498Z,0.35
2023-03-26T15:34:12.121Z,0.20
2023-03-26T15:36:50.955Z,0.40
2023-03-26T15:39:27.631Z,0.30
2023-03-26T15:42:19.627Z,0.40
2023-03-26T15:45:30.978Z,0.60
2023-03-26T15:48:12.931Z,0.50
2023-03-26T15:50:51.608Z,1.15
2023-03-26T15:53:23.908Z,0.57
2023-03-26T15:56:12.145Z,0.50
2023-03-26T15:59:00.493Z,0.55
2023-03-26T16:02:02.512Z,0.50
2023-03-26T16:04:54.571Z,0.32
2023-03-26T16:07:21.791Z,0.40
2023-03-26T16:09:51.336Z,0.47
2023-03-26T16:12:17.673Z,0.40
2023-03-26T16:14:44.112Z,0.57
2023-03-26T16:17:18.389Z,0.40
2023-03-26T16:22:44.855Z,0.40
2023-03-26T16:25:26.859Z,0.38
2023-03-26T16:28:10.662Z,0.40
2023-03-26T16:30:37.468Z,0.40
2023-03-26T16:33:17.622Z,0.50
2023-03-26T16:36:04.650Z,0.50
2023-03-26T16:39:11.564Z,0.40
2023-03-26T16:41:49.991Z,0.40
2023-03-26T16:44:20.686Z,0.43
2023-03-26T16:47:20.547Z,0.30
2023-03-26T16:50:08.516Z,0.47
2023-03-26T16:53:05.242Z,0.40
2023-03-26T16:55:46.907Z,0.50
2023-03-26T16:58:21.942Z,0.30
2023-03-26T17:00:54.876Z,0.30
2023-03-26T17:03:44.797Z,0.25
2023-03-26T17:06:53.846Z,0.30
2023-03-26T17:09:20.416Z,0.50
2023-03-26T17:12:27.297Z,0.60
2023-03-26T17:15:32.798Z,1.05
2023-03-26T17:18:25.758Z,0.55
2023-03-26T17:21:14.485Z,1.13
2023-03-26T17:23:56.163Z,0.50
2023-03-26T17:26:42.170Z,0.57
2023-03-26T17:29:33.054Z,0.55
2023-03-26T17:32:00.734Z,0.30
2023-03-26T17:34:49.110Z,0.60
2023-03-26T17:37:21.541Z,0.45
2023-03-26T17:40:27.058Z,0.45
2023-03-26T17:43:10.040Z,0.50
2023-03-26T17:45:37.656Z,0.88
2023-03-26T17:48:15.670Z,0.40
2023-03-26T17:50:46.217Z,0.40
2023-03-26T17:53:16.773Z,0.30
2023-03-26T17:55:43.667Z,0.50
2023-03-26T17:58:37.608Z,0.50
2023-03-26T18:01:34.813Z,0.50
2023-03-26T18:04:09.523Z,0.35
2023-03-26T18:07:00.303Z,0.60
2023-03-26T18:09:44.960Z,0.40
2023-03-26T18:12:52.902Z,0.60
2023-03-26T18:15:31.888Z,0.85
2023-03-26T18:18:19.880Z,0.50
2023-03-26T18:20:47.858Z,0.50
2023-03-26T18:23:47.516Z,0.50
2023-03-26T18:26:16.332Z,0.80
2023-03-26T18:28:51.265Z,0.70
2023-03-26T18:31:26.026Z,0.63
2023-03-26T18:33:55.765Z,0.60
2023-03-26T18:36:24.468Z,0.60
2023-03-26T18:38:51.729Z,0.63
2023-03-26T18:41:31.122Z,0.80
2023-03-26T18:44:01.990Z,0.70
2023-03-26T18:46:28.618Z,0.43
2023-03-26T18:48:55.654Z,0.68
2023-03-26T18:51:23.301Z,0.63
2023-03-26T18:53:52.523Z,0.55
2023-03-26T18:56:48.375Z,0.60
2023-03-26T18:59:27.897Z,0.52
2023-03-26T19:02:04.373Z,0.47
2023-03-26T19:04:33.347Z,0.60
2023-03-26T19:07:00.360Z,0.70
2023-03-26T19:09:32.215Z,0.50
2023-03-26T19:12:06.421Z,0.50
2023-03-26T19:14:36.818Z,0.53
2023-03-26T19:17:04.734Z,0.65
2023-03-26T19:19:33.071Z,0.50
2023-03-26T19:21:59.852Z,0.60
2023-03-26T19:24:26.415Z,0.60
2023-03-26T19:26:52.865Z,0.80
2023-03-26T19:29:25.858Z,0.80
2023-03-26T19:31:52.770Z,1.15
2023-03-26T19:34:31.628Z,1.10
2023-03-26T19:37:00.998Z,0.77
2023-03-26T19:39:42.633Z,0.75
2023-03-26T19:42:14.184Z,0.63
2023-03-26T19:44:41.151Z,0.70
2023-03-26T19:47:14.139Z,0.77
2023-03-26T19:49:52.949Z,0.70
2023-03-26T19:52:39.527Z,0.70
2023-03-26T19:55:12.136Z,0.60
2023-03-26T19:57:38.849Z,0.73
2023-03-26T20:00:13.263Z,0.77
2023-03-26T20:02:45.295Z,0.68
2023-03-26T20:05:26.004Z,0.82
2023-03-26T20:07:52.847Z,0.90
2023-03-26T20:10:19.357Z,0.57
2023-03-26T20:12:45.914Z,0.80
2023-03-26T20:15:19.228Z,0.60
2023-03-26T20:17:47.080Z,0.85
2023-03-26T20:20:13.735Z,0.90
2023-03-26T20:22:40.287Z,0.90
2023-03-26T20:25:23.142Z,0.90
2023-03-26T20:27:49.620Z,0.82
2023-03-26T20:30:19.055Z,0.80
2023-03-26T20:32:45.821Z,0.90
2023-03-26T20:35:36.211Z,0.90
2023-03-26T20:38:03.126Z,0.90
2023-03-26T20:40:29.665Z,0.90
2023-03-26T20:42:56.467Z,1.00
2023-03-26T20:45:23.770Z,0.98
2023-03-26T20:47:50.537Z,1.10
2023-03-26T20:50:18.161Z,0.93
2023-03-26T20:52:44.663Z,0.88
2023-03-26T20:55:15.613Z,0.90
2023-03-26T20:57:42.944Z,0.85
2023-03-26T21:00:32.358Z,0.88
2023-03-26T21:02:58.921Z,0.70
2023-03-26T21:05:26.753Z,0.90
2023-03-26T21:07:54.198Z,0.80
2023-03-26T21:10:21.246Z,0.60
2023-03-26T21:12:47.738Z,0.50
2023-03-26T21:15:22.978Z,0.50
2023-03-26T21:17:51.762Z,0.40
2023-03-26T21:20:19.281Z,0.52
2023-03-26T21:23:12.082Z,0.40
2023-03-26T21:26:01.438Z,0.35
2023-03-26T21:28:42.565Z,0.50
2023-03-26T21:31:18.547Z,0.40
2023-03-26T21:33:45.852Z,0.57
2023-03-26T21:36:13.250Z,0.50
2023-03-26T21:38:40.301Z,0.40
2023-03-26T21:41:07.070Z,0.40
2023-03-26T21:43:33.564Z,0.50
2023-03-26T21:46:00.600Z,0.40
2023-03-26T21:48:28.880Z,0.40
2023-03-26T21:50:55.713Z,0.60
2023-03-26T21:53:24.293Z,0.65
2023-03-26T21:56:24.417Z,0.60
2023-03-26T21:59:00.823Z,0.65
2023-03-26T22:01:38.164Z,0.50
2023-03-26T22:04:16.915Z,0.47
2023-03-26T22:06:50.868Z,0.70
2023-03-26T22:09:20.687Z,0.60
2023-03-26T22:11:52.986Z,0.50
2023-03-26T22:14:20.646Z,0.57
2023-03-26T22:16:47.139Z,0.70
2023-03-26T22:19:13.675Z,1.00
2023-03-26T22:21:40.185Z,0.70
2023-03-26T22:24:07.539Z,0.98
2023-03-26T22:26:34.067Z,1.00
2023-03-26T22:29:00.908Z,0.70
2023-03-26T22:31:27.595Z,0.90
2023-03-26T22:33:54.480Z,1.00
2023-03-26T22:36:22.782Z,1.10
2023-03-26T22:38:53.016Z,1.10
2023-03-26T22:41:19.569Z,1.33
2023-03-26T22:43:46.388Z,1.10
2023-03-26T22:46:13.701Z,0.85
2023-03-26T22:48:40.734Z,1.00
2023-03-26T22:51:08.250Z,1.10
2023-03-26T22:53:34.827Z,0.80
2023-03-26T22:56:01.322Z,0.90
2023-03-26T22:58:28.340Z,0.88
2023-03-26T23:01:10.536Z,0.90
2023-03-26T23:03:37.130Z,0.90
2023-03-26T23:06:07.839Z,0.88
2023-03-26T23:08:35.004Z,1.00
2023-03-26T23:11:02.001Z,0.85
2023-03-26T23:13:28.466Z,0.90
2023-03-26T23:15:56.862Z,0.90
2023-03-26T23:18:23.714Z,0.88
2023-03-26T23:20:55.418Z,0.90
2023-03-26T23:23:27.212Z,0.98
2023-03-26T23:25:54.969Z,1.00
2023-03-26T23:28:23.846Z,0.98
2023-03-26T23:30:52.202Z,0.80
2023-03-26T23:33:24.596Z,1.08
2023-03-26T23:35:52.092Z,0.70
2023-03-26T23:38:19.371Z,0.80
2023-03-26T23:40:45.955Z,0.80
2023-03-26T23:43:24.382Z,0.68
2023-03-26T23:45:50.929Z,1.33
2023-03-26T23:48:22.209Z,0.90
2023-03-26T23:50:53.243Z,0.93
2023-03-26T23:53:31.210Z,0.95
2023-03-26T23:56:00.549Z,1.00
2023-03-26T23:58:30.033Z,0.73
